NOZ44J ENGM-LEBB
Flight info
| Callsign | NOZ44J |
|---|---|
| Flight time | N/A |
| Altitude | 360 |
| Route | VIPPA6D VIPPA DCT UPGAS DCT TIPAN DCT EZTIM UM185 DIGSU N866 GASGU/N0440F370 N866 SAM/N0439F360 N63 LELNA/N0440F370 DCT NOVAN DCT NENEM N867 MAPAX MAPAX3K |
| Aircraft | B738/L-VGDW/C |
Departure
| Time | 2026-05-01 13:21 |
|---|---|
| Airport | Oslo-Gardermoen International Airport (ENGM) |
Arrival
| Time | N/A |
|---|---|
| Airport | Bilbao Airport (LEBB) |
| Time | Latitude | Longitude | Altitude | Speed | Heading |
|---|---|---|---|---|---|
| 2026-05-01 12:36 | 60.19671 | 11.09974 | 684 ft | 0 kts | 106° |
| 2026-05-01 13:10 | 60.19674 | 11.09952 | 676 ft | 4 kts | 106° |
| 2026-05-01 13:10 | 60.19681 | 11.09900 | 679 ft | 4 kts | 106° |
| 2026-05-01 13:11 | 60.19687 | 11.09860 | 680 ft | 4 kts | 106° |
| 2026-05-01 13:11 | 60.19694 | 11.09808 | 680 ft | 4 kts | 106° |
| 2026-05-01 13:11 | 60.19700 | 11.09771 | 676 ft | 0 kts | 106° |
| 2026-05-01 13:15 | 60.19700 | 11.09780 | 676 ft | 2 kts | 90° |
| 2026-05-01 13:15 | 60.19709 | 11.09794 | 680 ft | 1 kts | 19° |
| 2026-05-01 13:16 | 60.19719 | 11.09767 | 681 ft | 4 kts | 269° |
| 2026-05-01 13:16 | 60.19720 | 11.09650 | 682 ft | 11 kts | 279° |
| 2026-05-01 13:16 | 60.19745 | 11.09464 | 681 ft | 16 kts | 286° |
| 2026-05-01 13:17 | 60.19838 | 11.08807 | 676 ft | 16 kts | 285° |
| 2026-05-01 13:17 | 60.19910 | 11.08749 | 678 ft | 12 kts | 13° |
| 2026-05-01 13:18 | 60.20087 | 11.08853 | 676 ft | 16 kts | 17° |
| 2026-05-01 13:18 | 60.20201 | 11.08920 | 677 ft | 18 kts | 15° |
| 2026-05-01 13:18 | 60.20334 | 11.08997 | 681 ft | 21 kts | 15° |
| 2026-05-01 13:18 | 60.20467 | 11.09073 | 681 ft | 16 kts | 17° |
| 2026-05-01 13:19 | 60.20579 | 11.09135 | 681 ft | 13 kts | 14° |
| 2026-05-01 13:19 | 60.20647 | 11.09061 | 677 ft | 15 kts | 285° |
| 2026-05-01 13:19 | 60.20689 | 11.08755 | 676 ft | 11 kts | 287° |
| 2026-05-01 13:20 | 60.20701 | 11.08647 | 678 ft | 5 kts | 252° |
| 2026-05-01 13:20 | 60.20668 | 11.08621 | 678 ft | 5 kts | 192° |
| 2026-05-01 13:20 | 60.20664 | 11.08619 | 678 ft | 0 kts | 192° |
| 2026-05-01 13:21 | 60.19969 | 11.08223 | 674 ft | 111 kts | 196° |
| 2026-05-01 13:21 | 60.19061 | 11.07704 | 678 ft | 158 kts | 196° |
| 2026-05-01 13:21 | 60.17933 | 11.07084 | 1109 ft | 171 kts | 196° |
| 2026-05-01 13:21 | 60.16763 | 11.06450 | 1752 ft | 182 kts | 198° |
| 2026-05-01 13:22 | 60.15492 | 11.05583 | 2283 ft | 199 kts | 203° |
| 2026-05-01 13:22 | 60.14180 | 11.04477 | 2820 ft | 207 kts | 206° |
| 2026-05-01 13:22 | 60.12987 | 11.03075 | 3616 ft | 197 kts | 214° |
| 2026-05-01 13:22 | 60.11817 | 11.01761 | 4297 ft | 190 kts | 212° |
| 2026-05-01 13:23 | 60.10627 | 11.00615 | 4980 ft | 190 kts | 206° |
| 2026-05-01 13:23 | 60.09353 | 10.99721 | 5367 ft | 204 kts | 204° |
| 2026-05-01 13:23 | 60.07935 | 10.98773 | 5577 ft | 224 kts | 204° |
| 2026-05-01 13:23 | 60.06415 | 10.97729 | 5893 ft | 237 kts | 205° |
| 2026-05-01 13:24 | 60.04858 | 10.96648 | 6507 ft | 236 kts | 205° |
| 2026-05-01 13:24 | 60.03290 | 10.95561 | 7095 ft | 240 kts | 205° |
| 2026-05-01 13:24 | 60.01719 | 10.94473 | 7832 ft | 239 kts | 205° |
| 2026-05-01 13:25 | 59.98527 | 10.92268 | 8976 ft | 254 kts | 204° |
| 2026-05-01 13:25 | 59.96797 | 10.91071 | 9308 ft | 269 kts | 205° |
| 2026-05-01 13:25 | 59.95041 | 10.89869 | 10145 ft | 266 kts | 205° |
| 2026-05-01 13:25 | 59.93283 | 10.88668 | 10826 ft | 268 kts | 205° |
| 2026-05-01 13:26 | 59.91518 | 10.87459 | 11494 ft | 270 kts | 205° |
| 2026-05-01 13:26 | 59.89723 | 10.86230 | 12126 ft | 273 kts | 205° |
| 2026-05-01 13:26 | 59.87933 | 10.85009 | 12859 ft | 273 kts | 205° |
| 2026-05-01 13:26 | 59.86127 | 10.83777 | 13539 ft | 275 kts | 205° |
| 2026-05-01 13:27 | 59.84317 | 10.82543 | 14184 ft | 276 kts | 205° |
| 2026-05-01 13:27 | 59.82484 | 10.81295 | 14735 ft | 280 kts | 206° |
| 2026-05-01 13:27 | 59.78772 | 10.78771 | 15874 ft | 285 kts | 206° |
| 2026-05-01 13:28 | 59.74997 | 10.76207 | 16960 ft | 290 kts | 206° |
| 2026-05-01 13:28 | 59.73080 | 10.74904 | 17516 ft | 293 kts | 206° |
| 2026-05-01 13:29 | 59.69190 | 10.72277 | 18623 ft | 298 kts | 206° |
| 2026-05-01 13:29 | 59.65247 | 10.69619 | 19536 ft | 304 kts | 206° |
| 2026-05-01 13:30 | 59.57099 | 10.64145 | 21423 ft | 315 kts | 205° |
| 2026-05-01 13:31 | 59.52913 | 10.61346 | 22308 ft | 320 kts | 205° |
| 2026-05-01 13:31 | 59.46488 | 10.57063 | 23557 ft | 330 kts | 204° |
| 2026-05-01 13:32 | 59.42103 | 10.54151 | 24314 ft | 335 kts | 204° |
| 2026-05-01 13:33 | 59.35431 | 10.49735 | 25385 ft | 341 kts | 204° |
| 2026-05-01 13:33 | 59.30913 | 10.46753 | 26075 ft | 345 kts | 204° |
| 2026-05-01 13:34 | 59.26379 | 10.43773 | 26983 ft | 342 kts | 204° |
| 2026-05-01 13:34 | 59.21896 | 10.40835 | 27841 ft | 339 kts | 204° |
| 2026-05-01 13:35 | 59.17415 | 10.37900 | 28580 ft | 339 kts | 204° |
| 2026-05-01 13:35 | 59.15182 | 10.36442 | 28975 ft | 338 kts | 203° |
| 2026-05-01 13:35 | 59.10723 | 10.33534 | 29650 ft | 338 kts | 203° |
| 2026-05-01 13:36 | 59.08492 | 10.32083 | 30006 ft | 337 kts | 203° |
| 2026-05-01 13:36 | 59.06265 | 10.30636 | 30285 ft | 339 kts | 203° |
| 2026-05-01 13:36 | 59.01692 | 10.27664 | 30361 ft | 354 kts | 203° |
| 2026-05-01 13:37 | 58.96929 | 10.24583 | 30461 ft | 368 kts | 203° |
| 2026-05-01 13:37 | 58.92377 | 10.20015 | 30543 ft | 373 kts | 222° |
| 2026-05-01 13:38 | 58.88354 | 10.13472 | 30744 ft | 382 kts | 223° |
| 2026-05-01 13:38 | 58.86312 | 10.10164 | 30982 ft | 383 kts | 223° |
| 2026-05-01 13:38 | 58.84270 | 10.06875 | 31245 ft | 383 kts | 223° |
| 2026-05-01 13:39 | 58.82211 | 10.03572 | 31473 ft | 385 kts | 223° |
| 2026-05-01 13:39 | 58.80147 | 10.00272 | 31687 ft | 386 kts | 222° |
| 2026-05-01 13:39 | 58.78075 | 9.96968 | 31898 ft | 387 kts | 222° |
| 2026-05-01 13:39 | 58.75992 | 9.93653 | 32110 ft | 389 kts | 222° |
| 2026-05-01 13:40 | 58.73906 | 9.90340 | 32318 ft | 390 kts | 222° |
| 2026-05-01 13:40 | 58.71838 | 9.87061 | 32519 ft | 391 kts | 222° |
| 2026-05-01 13:40 | 58.69733 | 9.83728 | 32714 ft | 392 kts | 222° |
| 2026-05-01 13:40 | 58.67625 | 9.80398 | 32921 ft | 393 kts | 222° |
| 2026-05-01 13:41 | 58.65506 | 9.77053 | 33106 ft | 394 kts | 222° |
| 2026-05-01 13:41 | 58.63387 | 9.73715 | 33282 ft | 396 kts | 222° |
| 2026-05-01 13:41 | 58.61252 | 9.70357 | 33449 ft | 397 kts | 222° |
| 2026-05-01 13:41 | 58.59110 | 9.66993 | 33635 ft | 398 kts | 222° |
| 2026-05-01 13:42 | 58.56964 | 9.63629 | 33799 ft | 399 kts | 222° |
| 2026-05-01 13:42 | 58.54813 | 9.60262 | 33971 ft | 400 kts | 222° |
| 2026-05-01 13:42 | 58.52649 | 9.56881 | 34132 ft | 401 kts | 222° |
| 2026-05-01 13:42 | 58.50483 | 9.53502 | 34274 ft | 403 kts | 222° |
| 2026-05-01 13:43 | 58.48309 | 9.50115 | 34422 ft | 404 kts | 222° |
| 2026-05-01 13:43 | 58.46127 | 9.46723 | 34551 ft | 405 kts | 221° |
| 2026-05-01 13:43 | 58.43940 | 9.43328 | 34678 ft | 406 kts | 221° |
| 2026-05-01 13:43 | 58.41744 | 9.39925 | 34809 ft | 407 kts | 221° |
| 2026-05-01 13:44 | 58.39546 | 9.36525 | 34930 ft | 408 kts | 221° |
| 2026-05-01 13:44 | 58.37344 | 9.33123 | 35078 ft | 408 kts | 221° |
| 2026-05-01 13:44 | 58.35134 | 9.29714 | 35181 ft | 410 kts | 221° |
| 2026-05-01 13:45 | 58.30688 | 9.22875 | 35401 ft | 412 kts | 221° |
| 2026-05-01 13:45 | 58.28458 | 9.19454 | 35516 ft | 413 kts | 221° |
| 2026-05-01 13:45 | 58.26220 | 9.16026 | 35626 ft | 413 kts | 221° |
| 2026-05-01 13:45 | 58.24009 | 9.12644 | 35728 ft | 414 kts | 221° |
| 2026-05-01 13:46 | 58.21758 | 9.09207 | 35781 ft | 417 kts | 221° |
| 2026-05-01 13:46 | 58.17176 | 9.02227 | 35822 ft | 423 kts | 221° |
| 2026-05-01 13:47 | 58.12588 | 8.95264 | 35865 ft | 428 kts | 221° |
| 2026-05-01 13:47 | 58.07920 | 8.88204 | 35933 ft | 432 kts | 221° |
| 2026-05-01 13:48 | 58.03214 | 8.81112 | 36086 ft | 433 kts | 221° |
| 2026-05-01 13:48 | 57.98511 | 8.74049 | 36271 ft | 432 kts | 220° |
| 2026-05-01 13:49 | 57.93798 | 8.66994 | 36297 ft | 434 kts | 220° |
| 2026-05-01 13:49 | 57.89056 | 8.59920 | 36304 ft | 435 kts | 220° |
| 2026-05-01 13:50 | 57.85104 | 8.54043 | 36310 ft | 436 kts | 220° |
| 2026-05-01 13:50 | 57.80350 | 8.46997 | 36304 ft | 435 kts | 220° |
| 2026-05-01 13:51 | 57.75596 | 8.39976 | 36305 ft | 434 kts | 220° |
| 2026-05-01 13:51 | 57.70853 | 8.32994 | 36309 ft | 434 kts | 220° |
| 2026-05-01 13:52 | 57.66100 | 8.26020 | 36309 ft | 435 kts | 220° |
| 2026-05-01 13:52 | 57.61337 | 8.19057 | 36312 ft | 435 kts | 220° |
| 2026-05-01 13:53 | 57.56566 | 8.12105 | 36310 ft | 435 kts | 220° |
| 2026-05-01 13:53 | 57.49399 | 8.01708 | 36311 ft | 436 kts | 220° |
| 2026-05-01 13:54 | 57.44614 | 7.94795 | 36311 ft | 436 kts | 219° |
| 2026-05-01 13:54 | 57.39820 | 7.87892 | 36311 ft | 436 kts | 219° |
| 2026-05-01 13:55 | 57.35014 | 7.80997 | 36315 ft | 437 kts | 219° |
| 2026-05-01 13:55 | 57.30204 | 7.74119 | 36309 ft | 437 kts | 219° |
| 2026-05-01 13:56 | 57.25384 | 7.67249 | 36313 ft | 437 kts | 219° |
| 2026-05-01 13:56 | 57.20561 | 7.60399 | 36307 ft | 438 kts | 219° |
| 2026-05-01 13:57 | 57.15725 | 7.53554 | 36310 ft | 438 kts | 219° |
| 2026-05-01 13:57 | 57.10923 | 7.46780 | 36310 ft | 438 kts | 219° |
| 2026-05-01 13:58 | 57.06047 | 7.39924 | 36309 ft | 438 kts | 219° |
| 2026-05-01 13:58 | 57.01204 | 7.33138 | 36306 ft | 438 kts | 219° |
| 2026-05-01 13:59 | 56.96349 | 7.26359 | 36306 ft | 438 kts | 218° |
| 2026-05-01 13:59 | 56.91489 | 7.19595 | 36307 ft | 439 kts | 218° |
| 2026-05-01 14:00 | 56.86625 | 7.12848 | 36307 ft | 439 kts | 218° |
| 2026-05-01 14:00 | 56.81762 | 7.06124 | 36308 ft | 439 kts | 218° |
| 2026-05-01 14:01 | 56.76918 | 6.99449 | 36301 ft | 439 kts | 218° |
| 2026-05-01 14:01 | 56.72043 | 6.92753 | 36308 ft | 439 kts | 218° |
| 2026-05-01 14:02 | 56.67164 | 6.86075 | 36309 ft | 439 kts | 218° |
| 2026-05-01 14:02 | 56.62275 | 6.79406 | 36302 ft | 440 kts | 218° |
| 2026-05-01 14:03 | 56.57380 | 6.72749 | 36305 ft | 440 kts | 218° |
| 2026-05-01 14:03 | 56.52480 | 6.66109 | 36305 ft | 440 kts | 218° |
| 2026-05-01 14:04 | 56.47568 | 6.59474 | 36300 ft | 440 kts | 218° |
| 2026-05-01 14:04 | 56.42663 | 6.52871 | 36298 ft | 440 kts | 218° |
| 2026-05-01 14:05 | 56.37738 | 6.46261 | 36298 ft | 441 kts | 217° |
| 2026-05-01 14:05 | 56.32815 | 6.39677 | 36304 ft | 441 kts | 217° |
| 2026-05-01 14:06 | 56.27878 | 6.33096 | 36289 ft | 441 kts | 217° |
| 2026-05-01 14:06 | 56.22945 | 6.26541 | 36300 ft | 441 kts | 217° |
| 2026-05-01 14:07 | 56.18004 | 6.19997 | 36288 ft | 441 kts | 217° |
| 2026-05-01 14:08 | 56.10586 | 6.10214 | 36287 ft | 441 kts | 217° |
| 2026-05-01 14:08 | 56.05629 | 6.03702 | 36297 ft | 442 kts | 217° |
| 2026-05-01 14:09 | 56.00706 | 5.97256 | 36287 ft | 442 kts | 217° |
| 2026-05-01 14:09 | 55.95745 | 5.90782 | 36291 ft | 442 kts | 217° |
| 2026-05-01 14:10 | 55.90774 | 5.84315 | 36285 ft | 442 kts | 217° |
| 2026-05-01 14:10 | 55.85803 | 5.77869 | 36288 ft | 442 kts | 217° |
| 2026-05-01 14:11 | 55.80823 | 5.71433 | 36290 ft | 442 kts | 217° |
| 2026-05-01 14:11 | 55.73354 | 5.61818 | 36290 ft | 442 kts | 216° |
| 2026-05-01 14:12 | 55.68367 | 5.55425 | 36276 ft | 442 kts | 216° |
| 2026-05-01 14:12 | 55.63377 | 5.49048 | 36277 ft | 442 kts | 216° |
| 2026-05-01 14:13 | 55.59224 | 5.43755 | 36279 ft | 442 kts | 216° |
| 2026-05-01 14:13 | 55.53382 | 5.36335 | 36274 ft | 442 kts | 216° |
| 2026-05-01 14:14 | 55.48385 | 5.30010 | 36279 ft | 442 kts | 216° |
| 2026-05-01 14:14 | 55.43379 | 5.23692 | 36273 ft | 442 kts | 216° |
| 2026-05-01 14:15 | 55.38375 | 5.17398 | 36273 ft | 442 kts | 216° |
| 2026-05-01 14:15 | 55.33363 | 5.11113 | 36274 ft | 442 kts | 216° |
| 2026-05-01 14:16 | 55.28352 | 5.04846 | 36277 ft | 442 kts | 216° |
| 2026-05-01 14:16 | 55.23295 | 4.98714 | 36259 ft | 442 kts | 211° |
| 2026-05-01 14:17 | 55.17879 | 4.93599 | 36262 ft | 443 kts | 208° |
| 2026-05-01 14:17 | 55.12426 | 4.88592 | 36277 ft | 442 kts | 208° |
| 2026-05-01 14:18 | 55.06992 | 4.83542 | 36260 ft | 442 kts | 208° |
| 2026-05-01 14:18 | 55.02490 | 4.79332 | 36272 ft | 442 kts | 208° |
| 2026-05-01 14:19 | 54.96150 | 4.73408 | 36271 ft | 442 kts | 208° |
| 2026-05-01 14:19 | 54.90725 | 4.68356 | 36263 ft | 442 kts | 208° |
| 2026-05-01 14:20 | 54.82617 | 4.60838 | 36271 ft | 442 kts | 208° |
| 2026-05-01 14:21 | 54.77183 | 4.55819 | 36261 ft | 442 kts | 208° |
| 2026-05-01 14:21 | 54.71747 | 4.50813 | 36257 ft | 443 kts | 208° |
| 2026-05-01 14:22 | 54.63592 | 4.43330 | 36262 ft | 443 kts | 208° |
| 2026-05-01 14:22 | 54.58362 | 4.37773 | 36237 ft | 442 kts | 221° |
| 2026-05-01 14:23 | 54.53888 | 4.30522 | 36245 ft | 442 kts | 223° |
| 2026-05-01 14:23 | 54.49387 | 4.23317 | 36238 ft | 442 kts | 222° |
| 2026-05-01 14:24 | 54.44860 | 4.16164 | 36257 ft | 442 kts | 222° |
| 2026-05-01 14:24 | 54.40325 | 4.09033 | 36245 ft | 442 kts | 222° |
| 2026-05-01 14:25 | 54.35791 | 4.01922 | 36246 ft | 442 kts | 222° |
| 2026-05-01 14:25 | 54.31249 | 3.94817 | 36247 ft | 442 kts | 222° |
| 2026-05-01 14:26 | 54.24437 | 3.84202 | 36247 ft | 442 kts | 222° |
| 2026-05-01 14:27 | 54.19889 | 3.77143 | 36240 ft | 441 kts | 221° |
| 2026-05-01 14:27 | 54.15342 | 3.70107 | 36234 ft | 441 kts | 221° |
| 2026-05-01 14:28 | 54.08546 | 3.59631 | 36229 ft | 441 kts | 221° |
| 2026-05-01 14:28 | 54.03991 | 3.52636 | 36233 ft | 441 kts | 221° |
| 2026-05-01 14:29 | 53.99442 | 3.45672 | 36235 ft | 440 kts | 221° |
| 2026-05-01 14:30 | 53.90322 | 3.31774 | 36234 ft | 440 kts | 221° |
| 2026-05-01 14:31 | 53.83478 | 3.21401 | 36229 ft | 440 kts | 221° |
| 2026-05-01 14:31 | 53.78913 | 3.14509 | 36226 ft | 440 kts | 221° |
| 2026-05-01 14:32 | 53.74342 | 3.07627 | 36219 ft | 440 kts | 220° |
| 2026-05-01 14:32 | 53.69771 | 3.00766 | 36216 ft | 440 kts | 220° |
| 2026-05-01 14:33 | 53.65199 | 2.93926 | 36224 ft | 439 kts | 220° |
| 2026-05-01 14:33 | 53.60621 | 2.87096 | 36218 ft | 439 kts | 220° |
| 2026-05-01 14:34 | 53.56042 | 2.80285 | 36205 ft | 439 kts | 220° |
| 2026-05-01 14:34 | 53.51523 | 2.73581 | 36204 ft | 427 kts | 220° |
| 2026-05-01 14:35 | 53.47079 | 2.67010 | 36219 ft | 426 kts | 220° |
| 2026-05-01 14:35 | 53.42633 | 2.60452 | 36216 ft | 427 kts | 220° |
| 2026-05-01 14:36 | 53.38149 | 2.53893 | 36214 ft | 428 kts | 219° |
| 2026-05-01 14:36 | 53.33635 | 2.47369 | 36214 ft | 430 kts | 219° |
| 2026-05-01 14:37 | 53.29100 | 2.40823 | 36213 ft | 431 kts | 219° |
| 2026-05-01 14:37 | 53.24553 | 2.34270 | 36207 ft | 433 kts | 219° |
| 2026-05-01 14:38 | 53.20759 | 2.28807 | 36203 ft | 433 kts | 219° |
| 2026-05-01 14:38 | 53.16203 | 2.22219 | 36193 ft | 434 kts | 219° |
| 2026-05-01 14:39 | 53.11649 | 2.15642 | 36203 ft | 434 kts | 219° |
| 2026-05-01 14:39 | 53.07084 | 2.09071 | 36197 ft | 433 kts | 219° |
| 2026-05-01 14:40 | 53.02527 | 2.02533 | 36192 ft | 433 kts | 219° |
| 2026-05-01 14:40 | 52.97965 | 1.96009 | 36196 ft | 432 kts | 219° |
| 2026-05-01 14:41 | 52.93412 | 1.89515 | 36186 ft | 432 kts | 219° |
| 2026-05-01 14:41 | 52.88857 | 1.83038 | 36191 ft | 431 kts | 219° |
| 2026-05-01 14:42 | 52.84303 | 1.76581 | 36187 ft | 431 kts | 219° |
| 2026-05-01 14:42 | 52.79750 | 1.70143 | 36190 ft | 430 kts | 219° |
| 2026-05-01 14:43 | 52.75199 | 1.63726 | 36182 ft | 430 kts | 219° |
| 2026-05-01 14:43 | 52.70652 | 1.57334 | 36181 ft | 430 kts | 219° |
| 2026-05-01 14:44 | 52.66096 | 1.50946 | 36186 ft | 430 kts | 219° |
| 2026-05-01 14:44 | 52.59264 | 1.41402 | 36184 ft | 430 kts | 219° |
| 2026-05-01 14:45 | 52.52420 | 1.31882 | 36181 ft | 430 kts | 218° |
| 2026-05-01 14:46 | 52.47852 | 1.25549 | 36181 ft | 430 kts | 218° |
| 2026-05-01 14:46 | 52.40991 | 1.16072 | 36186 ft | 430 kts | 218° |
| 2026-05-01 14:47 | 52.36414 | 1.09773 | 36184 ft | 430 kts | 218° |
| 2026-05-01 14:48 | 52.29566 | 1.00378 | 36185 ft | 430 kts | 218° |
| 2026-05-01 14:48 | 52.22660 | 0.90945 | 36188 ft | 430 kts | 218° |
| 2026-05-01 14:49 | 52.13514 | 0.78511 | 36186 ft | 430 kts | 218° |
| 2026-05-01 14:50 | 52.04316 | 0.66072 | 36179 ft | 430 kts | 218° |
| 2026-05-01 14:51 | 51.98259 | 0.55303 | 36157 ft | 434 kts | 229° |
| 2026-05-01 14:52 | 51.92603 | 0.43860 | 36154 ft | 434 kts | 229° |
| 2026-05-01 14:53 | 51.86884 | 0.32457 | 36159 ft | 435 kts | 229° |
| 2026-05-01 14:53 | 51.83060 | 0.24866 | 36159 ft | 436 kts | 229° |
| 2026-05-01 14:54 | 51.79225 | 0.17269 | 36160 ft | 436 kts | 229° |
| 2026-05-01 14:54 | 51.75391 | 0.09699 | 36157 ft | 437 kts | 228° |
| 2026-05-01 14:55 | 51.71632 | 0.02297 | 36138 ft | 438 kts | 229° |
| 2026-05-01 14:55 | 51.67770 | -0.05282 | 36131 ft | 438 kts | 228° |
| 2026-05-01 14:56 | 51.63888 | -0.12882 | 36134 ft | 439 kts | 228° |
| 2026-05-01 14:56 | 51.60004 | -0.20461 | 36133 ft | 440 kts | 228° |
| 2026-05-01 14:57 | 51.56108 | -0.28042 | 36133 ft | 440 kts | 228° |
| 2026-05-01 14:57 | 51.50273 | -0.39352 | 36132 ft | 441 kts | 228° |
| 2026-05-01 14:58 | 51.46348 | -0.46934 | 36156 ft | 441 kts | 228° |
| 2026-05-01 14:58 | 51.42419 | -0.54499 | 36157 ft | 441 kts | 228° |
| 2026-05-01 14:59 | 51.38489 | -0.62046 | 36155 ft | 441 kts | 228° |
| 2026-05-01 14:59 | 51.34548 | -0.69592 | 36158 ft | 442 kts | 228° |
| 2026-05-01 15:00 | 51.28635 | -0.80871 | 36155 ft | 442 kts | 228° |
| 2026-05-01 15:01 | 51.24681 | -0.88389 | 36156 ft | 442 kts | 228° |
| 2026-05-01 15:01 | 51.20728 | -0.95869 | 36153 ft | 441 kts | 227° |
| 2026-05-01 15:02 | 51.16397 | -1.02788 | 36160 ft | 440 kts | 222° |
| 2026-05-01 15:02 | 51.11951 | -1.09461 | 36154 ft | 440 kts | 222° |
| 2026-05-01 15:03 | 51.07517 | -1.16200 | 36170 ft | 440 kts | 222° |
| 2026-05-01 15:03 | 51.03110 | -1.22943 | 36182 ft | 440 kts | 222° |
| 2026-05-01 15:04 | 50.98691 | -1.29687 | 36214 ft | 442 kts | 222° |
| 2026-05-01 15:04 | 50.93952 | -1.35887 | 36420 ft | 441 kts | 209° |
| 2026-05-01 15:04 | 50.91234 | -1.38134 | 36537 ft | 440 kts | 206° |
| 2026-05-01 15:05 | 50.88492 | -1.40310 | 36644 ft | 441 kts | 206° |
| 2026-05-01 15:05 | 50.82998 | -1.44683 | 36769 ft | 443 kts | 206° |
| 2026-05-01 15:06 | 50.77482 | -1.49063 | 36928 ft | 444 kts | 206° |
| 2026-05-01 15:06 | 50.71946 | -1.53443 | 37054 ft | 445 kts | 206° |
| 2026-05-01 15:06 | 50.69194 | -1.55615 | 37170 ft | 443 kts | 206° |
| 2026-05-01 15:07 | 50.66424 | -1.57799 | 37172 ft | 444 kts | 206° |
| 2026-05-01 15:07 | 50.60885 | -1.62156 | 37178 ft | 443 kts | 206° |
| 2026-05-01 15:08 | 50.55407 | -1.66454 | 37184 ft | 438 kts | 206° |
| 2026-05-01 15:08 | 50.49976 | -1.70704 | 37191 ft | 435 kts | 206° |
| 2026-05-01 15:09 | 50.44588 | -1.74909 | 37206 ft | 433 kts | 206° |
| 2026-05-01 15:09 | 50.39164 | -1.79132 | 37209 ft | 437 kts | 206° |
| 2026-05-01 15:10 | 50.33691 | -1.83382 | 37208 ft | 441 kts | 206° |
| 2026-05-01 15:10 | 50.25421 | -1.89783 | 37208 ft | 444 kts | 206° |
| 2026-05-01 15:11 | 50.17140 | -1.96169 | 37209 ft | 445 kts | 206° |
| 2026-05-01 15:12 | 50.11541 | -2.00472 | 37209 ft | 446 kts | 206° |
| 2026-05-01 15:12 | 50.03332 | -2.06763 | 37205 ft | 435 kts | 206° |
| 2026-05-01 15:14 | 49.89308 | -2.14913 | 37228 ft | 428 kts | 197° |
| 2026-05-01 15:14 | 49.80711 | -2.18842 | 37220 ft | 434 kts | 197° |
| 2026-05-01 15:15 | 49.69049 | -2.24238 | 37214 ft | 441 kts | 195° |
| 2026-05-01 15:16 | 49.56826 | -2.26620 | 37214 ft | 444 kts | 187° |
| 2026-05-01 15:18 | 49.41498 | -2.29273 | 37212 ft | 436 kts | 188° |
| 2026-05-01 15:19 | 49.29446 | -2.31406 | 37218 ft | 436 kts | 188° |
| 2026-05-01 15:19 | 49.20389 | -2.32999 | 37212 ft | 437 kts | 188° |
| 2026-05-01 15:20 | 49.11307 | -2.34590 | 37214 ft | 438 kts | 188° |
| 2026-05-01 15:21 | 49.05247 | -2.35648 | 37217 ft | 439 kts | 188° |
| 2026-05-01 15:21 | 48.99173 | -2.36706 | 37215 ft | 439 kts | 188° |
| 2026-05-01 15:22 | 48.90049 | -2.38290 | 37218 ft | 440 kts | 188° |
| 2026-05-01 15:22 | 48.83970 | -2.39342 | 37219 ft | 440 kts | 188° |
| 2026-05-01 15:23 | 48.78909 | -2.40216 | 37214 ft | 440 kts | 188° |
| 2026-05-01 15:23 | 48.72823 | -2.41265 | 37212 ft | 440 kts | 188° |
| 2026-05-01 15:24 | 48.66744 | -2.42310 | 37209 ft | 440 kts | 188° |
| 2026-05-01 15:24 | 48.60657 | -2.43354 | 37212 ft | 440 kts | 188° |
| 2026-05-01 15:25 | 48.54570 | -2.44395 | 37204 ft | 440 kts | 188° |
| 2026-05-01 15:25 | 48.48486 | -2.45434 | 37203 ft | 440 kts | 188° |
| 2026-05-01 15:26 | 48.42411 | -2.46468 | 37201 ft | 440 kts | 188° |
| 2026-05-01 15:26 | 48.36351 | -2.47498 | 37196 ft | 441 kts | 188° |
| 2026-05-01 15:27 | 48.30256 | -2.48530 | 37198 ft | 441 kts | 188° |
| 2026-05-01 15:28 | 48.21091 | -2.50079 | 37185 ft | 442 kts | 188° |
| 2026-05-01 15:28 | 48.14935 | -2.51115 | 37183 ft | 443 kts | 188° |
| 2026-05-01 15:29 | 48.05790 | -2.52651 | 37180 ft | 443 kts | 188° |
| 2026-05-01 15:30 | 47.94534 | -2.54534 | 37194 ft | 443 kts | 188° |
| 2026-05-01 15:31 | 47.75139 | -2.57758 | 37211 ft | 442 kts | 188° |
| 2026-05-01 15:32 | 47.62945 | -2.59773 | 37209 ft | 442 kts | 188° |
| 2026-05-01 15:34 | 47.44588 | -2.62789 | 37207 ft | 442 kts | 188° |